createdAt,value
2019-04-30T00:00:55.410Z,1012.83
2019-04-30T00:01:59.258Z,1012.79
2019-04-30T00:03:06.630Z,1012.80
2019-04-30T00:04:10.275Z,1012.82
2019-04-30T00:05:18.788Z,1012.82
2019-04-30T00:06:21.297Z,1012.84
2019-04-30T00:07:26.806Z,1012.83
2019-04-30T00:08:35.656Z,1012.82
2019-04-30T00:09:37.841Z,1012.80
2019-04-30T00:10:45.277Z,1012.79
2019-04-30T00:11:50.560Z,1012.78
2019-04-30T00:12:55.461Z,1012.79
2019-04-30T00:13:59.880Z,1012.79
2019-04-30T00:15:06.234Z,1012.76
2019-04-30T00:16:10.900Z,1012.76
2019-04-30T00:17:19.588Z,1012.75
2019-04-30T00:18:21.937Z,1012.79
2019-04-30T00:19:27.431Z,1012.77
2019-04-30T00:20:37.235Z,1012.72
2019-04-30T00:21:38.458Z,1012.72
2019-04-30T00:22:47.155Z,1012.73
2019-04-30T00:23:49.474Z,1012.70
2019-04-30T00:24:55.674Z,1012.72
2019-04-30T00:26:08.695Z,1012.72
2019-04-30T00:27:06.018Z,1012.72
2019-04-30T00:28:11.518Z,1012.69
2019-04-30T00:29:26.533Z,1012.70
2019-04-30T00:30:22.557Z,1012.72
2019-04-30T00:31:28.051Z,1012.70
2019-04-30T00:32:38.859Z,1012.67
2019-04-30T00:33:39.083Z,1012.71
2019-04-30T00:34:45.586Z,1012.68
2019-04-30T00:35:55.228Z,1012.68
2019-04-30T00:36:55.941Z,1012.70
2019-04-30T00:38:01.121Z,1012.63
2019-04-30T00:39:12.928Z,1012.64
2019-04-30T00:40:12.146Z,1012.60
2019-04-30T00:41:17.659Z,1012.63
2019-04-30T00:42:24.305Z,1012.64
2019-04-30T00:43:28.681Z,1012.64
2019-04-30T00:44:35.660Z,1012.65
2019-04-30T00:45:39.953Z,1012.62
2019-04-30T00:46:45.790Z,1012.65
2019-04-30T00:47:50.728Z,1012.60
2019-04-30T00:49:08.572Z,1012.59
2019-04-30T00:50:01.748Z,1012.56
2019-04-30T00:51:14.007Z,1012.62
2019-04-30T00:52:12.770Z,1012.56
2019-04-30T00:53:18.296Z,1012.59
2019-04-30T00:54:29.343Z,1012.57
2019-04-30T00:55:29.308Z,1012.55
2019-04-30T00:56:35.548Z,1012.58
2019-04-30T00:57:43.712Z,1012.53
2019-04-30T00:58:45.833Z,1012.61
2019-04-30T00:59:51.349Z,1012.58
2019-04-30T01:00:59.730Z,1012.51
2019-04-30T01:02:02.373Z,1012.54
2019-04-30T01:03:09.412Z,1012.58
2019-04-30T01:04:15.002Z,1012.52
2019-04-30T01:05:18.908Z,1012.52
2019-04-30T01:06:28.496Z,1012.52
2019-04-30T01:07:29.928Z,1012.50
2019-04-30T01:08:35.853Z,1012.52
2019-04-30T01:09:46.424Z,1012.52
2019-04-30T01:10:46.453Z,1012.53
2019-04-30T01:11:51.969Z,1012.52
2019-04-30T01:13:04.960Z,1012.50
2019-04-30T01:14:02.997Z,1012.46
2019-04-30T01:15:11.110Z,1012.47
2019-04-30T01:16:14.016Z,1012.49
2019-04-30T01:17:19.528Z,1012.43
2019-04-30T01:18:30.581Z,1012.40
2019-04-30T01:19:32.868Z,1012.41
2019-04-30T01:20:36.069Z,1012.40
2019-04-30T01:21:47.010Z,1012.38
2019-04-30T01:22:48.646Z,1012.36
2019-04-30T01:23:54.680Z,1012.43
2019-04-30T01:25:02.904Z,1012.45
2019-04-30T01:26:03.617Z,1012.41
2019-04-30T01:27:10.570Z,1012.44
2019-04-30T01:28:16.491Z,1012.42
2019-04-30T01:29:20.156Z,1012.38
2019-04-30T01:30:25.667Z,1012.36
2019-04-30T01:31:37.262Z,1012.36
2019-04-30T01:32:36.682Z,1012.33
2019-04-30T01:33:42.204Z,1012.32
2019-04-30T01:34:52.219Z,1012.33
2019-04-30T01:35:53.220Z,1012.34
2019-04-30T01:36:59.010Z,1012.30
2019-04-30T01:38:08.557Z,1012.31
2019-04-30T01:39:09.758Z,1012.31
2019-04-30T01:40:15.264Z,1012.36
2019-04-30T01:41:27.346Z,1012.33
2019-04-30T01:42:26.292Z,1012.30
2019-04-30T01:43:34.613Z,1012.28
2019-04-30T01:44:39.106Z,1012.30
2019-04-30T01:45:42.819Z,1012.29
2019-04-30T01:46:51.443Z,1012.28
2019-04-30T01:47:53.853Z,1012.30
2019-04-30T01:48:59.354Z,1012.27
2019-04-30T01:50:05.083Z,1012.28
2019-04-30T01:51:13.337Z,1012.29
2019-04-30T01:52:15.889Z,1012.27
2019-04-30T01:53:21.399Z,1012.28
2019-04-30T01:54:26.915Z,1012.30
2019-04-30T01:55:32.422Z,1012.34
2019-04-30T01:56:38.922Z,1012.30
2019-04-30T01:57:43.442Z,1012.33
2019-04-30T01:58:49.486Z,1012.32
2019-04-30T01:59:54.469Z,1012.35
2019-04-30T02:00:59.983Z,1012.32
2019-04-30T02:02:05.504Z,1012.33
2019-04-30T02:03:11.265Z,1012.36
2019-04-30T02:04:16.514Z,1012.37
2019-04-30T02:05:22.028Z,1012.32
2019-04-30T02:06:29.320Z,1012.35
2019-04-30T02:07:33.049Z,1012.30
2019-04-30T02:08:39.338Z,1012.32
2019-04-30T02:09:44.062Z,1012.34
2019-04-30T02:10:51.353Z,1012.36
2019-04-30T02:11:55.090Z,1012.34
2019-04-30T02:13:00.607Z,1012.34
2019-04-30T02:14:06.118Z,1012.37
2019-04-30T02:15:11.624Z,1012.38
2019-04-30T02:16:20.763Z,1012.36
2019-04-30T02:17:22.643Z,1012.33
2019-04-30T02:18:29.666Z,1012.29
2019-04-30T02:19:33.670Z,1012.32
2019-04-30T02:20:39.201Z,1012.30
2019-04-30T02:21:44.696Z,1012.33
2019-04-30T02:22:50.202Z,1012.33
2019-04-30T02:23:55.720Z,1012.29
2019-04-30T02:25:01.224Z,1012.32
2019-04-30T02:26:08.597Z,1012.32
2019-04-30T02:27:12.248Z,1012.34
2019-04-30T02:28:18.986Z,1012.32
2019-04-30T02:29:23.270Z,1012.33
2019-04-30T02:30:30.825Z,1012.33
2019-04-30T02:31:34.297Z,1012.34
2019-04-30T02:32:39.802Z,1012.31
2019-04-30T02:33:45.319Z,1012.35
2019-04-30T02:34:50.827Z,1012.37
2019-04-30T02:35:56.337Z,1012.34
2019-04-30T02:37:01.849Z,1012.33
2019-04-30T02:38:09.869Z,1012.37
2019-04-30T02:39:12.871Z,1012.36
2019-04-30T02:40:20.188Z,1012.41
2019-04-30T02:41:23.898Z,1012.41
2019-04-30T02:42:29.784Z,1012.40
2019-04-30T02:43:34.914Z,1012.39
2019-04-30T02:44:40.737Z,1012.36
2019-04-30T02:45:45.938Z,1012.36
2019-04-30T02:46:51.452Z,1012.34
2019-04-30T02:47:59.278Z,1012.29
2019-04-30T02:49:02.520Z,1012.29
2019-04-30T02:50:15.220Z,1012.27
2019-04-30T02:51:13.501Z,1012.30
2019-04-30T02:52:19.603Z,1012.27
2019-04-30T02:53:24.516Z,1012.28
2019-04-30T02:54:30.022Z,1012.28
2019-04-30T02:55:35.535Z,1012.35
2019-04-30T02:56:41.048Z,1012.30
2019-04-30T02:57:46.557Z,1012.32
2019-04-30T02:58:52.071Z,1012.32
2019-04-30T02:59:59.830Z,1012.32
2019-04-30T03:01:03.098Z,1012.29
2019-04-30T03:02:11.490Z,1012.28
2019-04-30T03:03:14.145Z,1012.29
2019-04-30T03:04:19.842Z,1012.26
2019-04-30T03:05:25.159Z,1012.29
2019-04-30T03:06:30.740Z,1012.33
2019-04-30T03:07:36.172Z,1012.28
2019-04-30T03:08:41.671Z,1012.30
2019-04-30T03:09:49.806Z,1012.29
2019-04-30T03:10:52.893Z,1012.31
2019-04-30T03:12:00.278Z,1012.25
2019-04-30T03:13:03.716Z,1012.32
2019-04-30T03:14:10.340Z,1012.28
2019-04-30T03:15:14.742Z,1012.30
2019-04-30T03:16:20.882Z,1012.30
2019-04-30T03:17:25.762Z,1012.31
2019-04-30T03:18:31.275Z,1012.34
2019-04-30T03:19:36.781Z,1012.27
2019-04-30T03:20:42.294Z,1012.31
2019-04-30T03:21:49.987Z,1012.26
2019-04-30T03:22:53.312Z,1012.30
2019-04-30T03:24:00.617Z,1012.25
2019-04-30T03:25:04.344Z,1012.26
2019-04-30T03:26:12.914Z,1012.26
2019-04-30T03:27:15.369Z,1012.15
2019-04-30T03:28:20.875Z,1012.19
2019-04-30T03:29:26.382Z,1012.21
2019-04-30T03:30:32.515Z,1012.16
2019-04-30T03:31:42.825Z,1012.17
2019-04-30T03:32:43.666Z,1012.21
2019-04-30T03:33:52.465Z,1012.20
2019-04-30T03:34:53.933Z,1012.20
2019-04-30T03:36:02.151Z,1012.19
2019-04-30T03:37:04.958Z,1012.22
2019-04-30T03:38:10.466Z,1012.19
2019-04-30T03:39:15.989Z,1012.22
2019-04-30T03:40:21.485Z,1012.24
2019-04-30T03:41:27.013Z,1012.22
2019-04-30T03:42:32.512Z,1012.18
2019-04-30T03:43:40.133Z,1012.16
2019-04-30T03:44:43.537Z,1012.21
2019-04-30T03:45:49.926Z,1012.19
2019-04-30T03:46:54.562Z,1012.21
2019-04-30T03:48:00.467Z,1012.21
2019-04-30T03:49:05.583Z,1012.16
2019-04-30T03:50:11.093Z,1012.26
2019-04-30T03:51:16.600Z,1012.22
2019-04-30T03:52:22.114Z,1012.25
2019-04-30T03:53:29.703Z,1012.22
2019-04-30T03:54:33.134Z,1012.26
2019-04-30T03:55:40.078Z,1012.23
2019-04-30T03:56:44.161Z,1012.27
2019-04-30T03:57:51.857Z,1012.25
2019-04-30T03:58:55.188Z,1012.25
2019-04-30T04:00:00.689Z,1012.24
2019-04-30T04:01:06.203Z,1012.27
2019-04-30T04:02:12.707Z,1012.22
2019-04-30T04:03:19.969Z,1012.24
2019-04-30T04:04:22.741Z,1012.30
2019-04-30T04:05:29.901Z,1012.27
2019-04-30T04:06:33.754Z,1012.25
2019-04-30T04:07:39.557Z,1012.27
2019-04-30T04:08:44.776Z,1012.30
2019-04-30T04:09:50.288Z,1012.31
2019-04-30T04:10:55.801Z,1012.30
2019-04-30T04:12:01.307Z,1012.25
2019-04-30T04:13:06.826Z,1012.29
2019-04-30T04:14:12.336Z,1012.27
2019-04-30T04:15:20.002Z,1012.28
2019-04-30T04:16:23.358Z,1012.28
2019-04-30T04:17:31.455Z,1012.27
2019-04-30T04:18:34.381Z,1012.27
2019-04-30T04:19:39.887Z,1012.26
2019-04-30T04:20:45.397Z,1012.24
2019-04-30T04:21:51.155Z,1012.27
2019-04-30T04:22:56.418Z,1012.30
2019-04-30T04:24:01.929Z,1012.28
2019-04-30T04:25:12.767Z,1012.32
2019-04-30T04:26:12.953Z,1012.34
2019-04-30T04:27:19.454Z,1012.30
2019-04-30T04:28:23.976Z,1012.30
2019-04-30T04:29:29.901Z,1012.33
2019-04-30T04:30:34.998Z,1012.31
2019-04-30T04:31:40.503Z,1012.31
2019-04-30T04:32:46.018Z,1012.30
2019-04-30T04:33:52.683Z,1012.31
2019-04-30T04:34:59.925Z,1012.28
2019-04-30T04:36:02.558Z,1012.28
2019-04-30T04:37:10.061Z,1012.28
2019-04-30T04:38:13.581Z,1012.29
2019-04-30T04:39:20.226Z,1012.30
2019-04-30T04:40:24.592Z,1012.30
2019-04-30T04:41:30.107Z,1012.34
2019-04-30T04:42:35.625Z,1012.29
2019-04-30T04:43:41.130Z,1012.30
2019-04-30T04:44:49.812Z,1012.31
2019-04-30T04:45:52.153Z,1012.31
2019-04-30T04:47:00.026Z,1012.31
2019-04-30T04:48:03.175Z,1012.33
2019-04-30T04:49:09.121Z,1012.37
2019-04-30T04:50:14.193Z,1012.37
2019-04-30T04:51:33.373Z,1012.37
2019-04-30T04:52:25.215Z,1012.41
2019-04-30T04:53:30.724Z,1012.39
2019-04-30T04:54:36.235Z,1012.40
2019-04-30T04:55:41.792Z,1012.43
2019-04-30T04:56:47.297Z,1012.42
2019-04-30T04:57:52.767Z,1012.44
2019-04-30T04:59:00.241Z,1012.48
2019-04-30T05:00:07.412Z,1012.44
2019-04-30T05:01:11.806Z,1012.49
2019-04-30T05:02:14.810Z,1012.48
2019-04-30T05:03:20.338Z,1012.47
2019-04-30T05:04:25.835Z,1012.48
2019-04-30T05:05:31.347Z,1012.48
2019-04-30T05:06:36.861Z,1012.48
2019-04-30T05:07:42.363Z,1012.50
2019-04-30T05:08:49.347Z,1012.47
2019-04-30T05:09:53.404Z,1012.53
2019-04-30T05:10:59.435Z,1012.53
2019-04-30T05:12:04.412Z,1012.52
2019-04-30T05:13:09.926Z,1012.53
2019-04-30T05:14:15.433Z,1012.57
2019-04-30T05:15:20.948Z,1012.58
2019-04-30T05:16:26.455Z,1012.59
2019-04-30T05:17:32.194Z,1012.60
2019-04-30T05:18:39.129Z,1012.64
2019-04-30T05:19:42.993Z,1012.64
2019-04-30T05:20:49.056Z,1012.65
2019-04-30T05:21:54.005Z,1012.65
2019-04-30T05:22:59.513Z,1012.66
2019-04-30T05:24:05.025Z,1012.62
2019-04-30T05:25:10.541Z,1012.62
2019-04-30T05:26:16.048Z,1012.65
2019-04-30T05:27:21.558Z,1012.64
2019-04-30T05:28:27.072Z,1012.61
2019-04-30T05:29:32.579Z,1012.67
2019-04-30T05:30:39.321Z,1012.62
2019-04-30T05:31:43.610Z,1012.63
2019-04-30T05:32:50.880Z,1012.66
2019-04-30T05:33:54.631Z,1012.65
2019-04-30T05:35:00.140Z,1012.69
2019-04-30T05:36:05.655Z,1012.70
2019-04-30T05:37:11.156Z,1012.73
2019-04-30T05:38:16.670Z,1012.69
2019-04-30T05:39:22.179Z,1012.70
2019-04-30T05:40:28.767Z,1012.70
2019-04-30T05:41:33.198Z,1012.75
2019-04-30T05:42:38.895Z,1012.70
2019-04-30T05:43:44.233Z,1012.72
2019-04-30T05:44:49.901Z,1012.68
2019-04-30T05:45:55.245Z,1012.77
2019-04-30T05:47:00.752Z,1012.75
2019-04-30T05:48:06.276Z,1012.74
2019-04-30T05:49:11.780Z,1012.75
2019-04-30T05:50:17.305Z,1012.77
2019-04-30T05:51:22.798Z,1012.74
2019-04-30T05:52:29.468Z,1012.77
2019-04-30T05:53:33.827Z,1012.75
2019-04-30T05:54:39.330Z,1012.76
2019-04-30T05:55:44.848Z,1012.80
2019-04-30T05:56:50.352Z,1012.77
2019-04-30T05:57:56.618Z,1012.80
2019-04-30T05:59:01.392Z,1012.74
2019-04-30T06:00:06.893Z,1012.80
2019-04-30T06:01:12.399Z,1012.84
2019-04-30T06:02:19.299Z,1012.78
2019-04-30T06:03:29.691Z,1012.85
2019-04-30T06:04:29.408Z,1012.86
2019-04-30T06:05:34.438Z,1012.81
2019-04-30T06:06:39.952Z,1012.84
2019-04-30T06:07:45.459Z,1012.81
2019-04-30T06:08:50.974Z,1012.86
2019-04-30T06:09:56.487Z,1012.85
2019-04-30T06:11:01.990Z,1012.84
2019-04-30T06:12:11.139Z,1012.89
2019-04-30T06:13:13.014Z,1012.87
2019-04-30T06:14:18.665Z,1012.85
2019-04-30T06:15:24.095Z,1012.89
2019-04-30T06:16:29.901Z,1012.91
2019-04-30T06:17:35.060Z,1012.91
2019-04-30T06:18:42.289Z,1012.90
2019-04-30T06:19:46.082Z,1012.89
2019-04-30T06:20:51.603Z,1012.91
2019-04-30T06:22:07.221Z,1012.86
2019-04-30T06:23:02.627Z,1012.86
2019-04-30T06:24:08.257Z,1012.86
2019-04-30T06:25:13.647Z,1012.84
2019-04-30T06:26:20.705Z,1012.86
2019-04-30T06:27:24.664Z,1012.83
2019-04-30T06:28:30.180Z,1012.83
2019-04-30T06:29:35.690Z,1012.77
2019-04-30T06:30:41.198Z,1012.75
2019-04-30T06:31:48.522Z,1012.80
2019-04-30T06:32:52.222Z,1012.82
2019-04-30T06:33:58.611Z,1012.80
2019-04-30T06:35:03.241Z,1012.83
2019-04-30T06:36:11.037Z,1012.82
2019-04-30T06:37:14.271Z,1012.84
2019-04-30T06:38:19.782Z,1012.87
2019-04-30T06:39:25.287Z,1012.86
2019-04-30T06:40:30.799Z,1012.89
2019-04-30T06:41:36.312Z,1012.85
2019-04-30T06:42:41.823Z,1012.83
2019-04-30T06:43:48.831Z,1012.86
2019-04-30T06:44:52.841Z,1012.88
2019-04-30T06:45:58.963Z,1012.89
2019-04-30T06:47:03.865Z,1012.93
2019-04-30T06:48:09.382Z,1012.88
2019-04-30T06:49:14.892Z,1012.92
2019-04-30T06:50:20.404Z,1012.90
2019-04-30T06:51:25.917Z,1012.90
2019-04-30T06:52:31.423Z,1012.92
2019-04-30T06:53:36.988Z,1012.94
2019-04-30T06:54:42.446Z,1012.94
2019-04-30T06:55:49.249Z,1012.99
2019-04-30T06:56:53.474Z,1013.00
2019-04-30T06:58:11.444Z,1012.99
2019-04-30T06:59:04.494Z,1013.00
2019-04-30T07:00:10.008Z,1012.99
2019-04-30T07:01:15.516Z,1013.02
2019-04-30T07:02:21.028Z,1013.01
2019-04-30T07:03:26.535Z,1013.01
2019-04-30T07:04:32.053Z,1013.02
2019-04-30T07:05:38.905Z,1013.02
2019-04-30T07:06:45.086Z,1013.01
2019-04-30T07:07:48.894Z,1013.03
2019-04-30T07:08:56.021Z,1013.01
2019-04-30T07:10:01.236Z,1012.98
2019-04-30T07:11:08.593Z,1013.01
2019-04-30T07:12:22.717Z,1013.02
2019-04-30T07:13:16.134Z,1013.00
2019-04-30T07:14:21.656Z,1013.04
2019-04-30T07:15:27.157Z,1013.00
2019-04-30T07:16:32.669Z,1013.01
2019-04-30T07:17:40.535Z,1013.02
2019-04-30T07:18:43.693Z,1013.04
2019-04-30T07:19:55.694Z,1013.02
2019-04-30T07:20:54.722Z,1013.06
2019-04-30T07:22:00.243Z,1013.07
2019-04-30T07:23:05.733Z,1013.07
2019-04-30T07:24:11.254Z,1013.06
2019-04-30T07:25:16.763Z,1013.06
2019-04-30T07:26:24.486Z,1013.05
2019-04-30T07:27:30.199Z,1013.07
2019-04-30T07:28:44.820Z,1013.07
2019-04-30T07:29:39.293Z,1013.06
2019-04-30T07:30:44.317Z,1013.09
2019-04-30T07:31:51.721Z,1013.07
2019-04-30T07:32:55.335Z,1013.05
2019-04-30T07:34:00.855Z,1013.03
2019-04-30T07:35:06.374Z,1013.03
2019-04-30T07:36:11.894Z,1013.07
2019-04-30T07:37:24.098Z,1013.07
2019-04-30T07:38:22.899Z,1013.05
2019-04-30T07:39:32.055Z,1013.06
2019-04-30T07:40:33.924Z,1013.09
2019-04-30T07:41:40.230Z,1013.06
2019-04-30T07:42:45.184Z,1013.09
2019-04-30T07:43:50.456Z,1013.08
2019-04-30T07:44:55.955Z,1013.09
2019-04-30T07:46:01.475Z,1013.07
2019-04-30T07:47:09.518Z,1013.08
2019-04-30T07:48:12.497Z,1013.09
2019-04-30T07:49:20.507Z,1013.08
2019-04-30T07:50:24.155Z,1013.11
2019-04-30T07:51:32.198Z,1013.09
2019-04-30T07:52:35.352Z,1013.15
2019-04-30T07:53:40.540Z,1013.16
2019-04-30T07:54:45.559Z,1013.13
2019-04-30T07:55:51.089Z,1013.19
2019-04-30T07:56:56.613Z,1013.18
2019-04-30T07:58:02.102Z,1013.18
2019-04-30T07:59:10.836Z,1013.19
2019-04-30T08:00:13.126Z,1013.20
2019-04-30T08:01:19.570Z,1013.21
2019-04-30T08:02:24.638Z,1013.20
2019-04-30T08:03:30.602Z,1013.23
2019-04-30T08:04:35.168Z,1013.23
2019-04-30T08:05:40.691Z,1013.24
2019-04-30T08:06:46.245Z,1013.19
2019-04-30T08:07:51.744Z,1013.20
2019-04-30T08:09:00.271Z,1013.21
2019-04-30T08:10:02.724Z,1013.25
2019-04-30T08:11:09.301Z,1013.31
2019-04-30T08:12:22.210Z,1013.25
2019-04-30T08:13:21.897Z,1013.29
2019-04-30T08:14:24.793Z,1013.31
2019-04-30T08:15:30.279Z,1013.33
2019-04-30T08:16:35.795Z,1013.30
2019-04-30T08:17:41.307Z,1013.32
2019-04-30T08:18:46.820Z,1013.30
2019-04-30T08:19:52.340Z,1013.27
2019-04-30T08:20:59.038Z,1013.31
2019-04-30T08:22:03.361Z,1013.31
2019-04-30T08:23:20.208Z,1013.30
2019-04-30T08:24:14.382Z,1013.34
2019-04-30T08:25:21.988Z,1013.33
2019-04-30T08:26:25.407Z,1013.31
2019-04-30T08:27:30.916Z,1013.34
2019-04-30T08:28:38.484Z,1013.30
2019-04-30T08:29:41.937Z,1013.31
2019-04-30T08:30:48.970Z,1013.31
2019-04-30T08:31:52.958Z,1013.29
2019-04-30T08:32:59.583Z,1013.33
2019-04-30T08:34:03.990Z,1013.32
2019-04-30T08:35:10.018Z,1013.30
2019-04-30T08:36:15.012Z,1013.33
2019-04-30T08:37:20.526Z,1013.30
2019-04-30T08:38:26.046Z,1013.26
2019-04-30T08:39:31.859Z,1013.30
2019-04-30T08:40:37.061Z,1013.27
2019-04-30T08:41:42.574Z,1013.27
2019-04-30T08:42:49.495Z,1013.29
2019-04-30T08:43:53.581Z,1013.28
2019-04-30T08:44:59.108Z,1013.26
2019-04-30T08:46:04.632Z,1013.28
2019-04-30T08:47:10.136Z,1013.28
2019-04-30T08:48:15.649Z,1013.26
2019-04-30T08:49:21.393Z,1013.27
2019-04-30T08:50:26.707Z,1013.30
2019-04-30T08:51:32.324Z,1013.29
2019-04-30T08:52:39.422Z,1013.31
2019-04-30T08:53:43.199Z,1013.33
2019-04-30T08:54:49.644Z,1013.33
2019-04-30T08:55:54.232Z,1013.29
2019-04-30T08:56:59.743Z,1013.29
2019-04-30T08:58:09.986Z,1013.30
2019-04-30T08:59:11.191Z,1013.27
2019-04-30T09:00:16.286Z,1013.24
2019-04-30T09:01:21.802Z,1013.22
2019-04-30T09:02:28.983Z,1013.21
2019-04-30T09:03:32.824Z,1013.21
2019-04-30T09:04:38.857Z,1013.20
2019-04-30T09:05:43.841Z,1013.21
2019-04-30T09:06:49.668Z,1013.18
2019-04-30T09:07:54.870Z,1013.19
2019-04-30T09:09:00.441Z,1013.16
2019-04-30T09:10:05.888Z,1013.17
2019-04-30T09:11:22.583Z,1013.15
2019-04-30T09:12:16.911Z,1013.15
2019-04-30T09:13:22.427Z,1013.13
2019-04-30T09:14:29.692Z,1013.10
2019-04-30T09:15:33.450Z,1013.12
2019-04-30T09:16:39.397Z,1013.10
2019-04-30T09:17:58.130Z,1013.11
2019-04-30T09:18:49.986Z,1013.11
2019-04-30T09:19:55.494Z,1013.10
2019-04-30T09:21:06.008Z,1013.13
2019-04-30T09:22:14.452Z,1013.06
2019-04-30T09:23:12.035Z,1013.07
2019-04-30T09:24:19.090Z,1013.07
2019-04-30T09:25:23.055Z,1013.06
2019-04-30T09:26:29.142Z,1013.07
2019-04-30T09:27:34.085Z,1013.07
2019-04-30T09:28:41.100Z,1013.08
2019-04-30T09:29:45.120Z,1013.10
2019-04-30T09:30:50.623Z,1013.09
2019-04-30T09:31:56.136Z,1013.10
2019-04-30T09:33:01.651Z,1013.12
2019-04-30T09:34:16.087Z,1013.16
2019-04-30T09:35:12.675Z,1013.19
2019-04-30T09:36:20.536Z,1013.14
2019-04-30T09:37:23.717Z,1013.11
2019-04-30T09:38:29.213Z,1013.15
2019-04-30T09:39:34.719Z,1013.16
2019-04-30T09:40:41.759Z,1013.16
2019-04-30T09:41:45.752Z,1013.14
2019-04-30T09:42:51.264Z,1013.12
2019-04-30T09:43:56.786Z,1013.15
2019-04-30T09:45:02.297Z,1013.12
2019-04-30T09:46:17.936Z,1013.16
2019-04-30T09:47:13.314Z,1013.12
2019-04-30T09:48:19.148Z,1013.14
2019-04-30T09:49:24.339Z,1013.07
2019-04-30T09:50:29.894Z,1013.09
2019-04-30T09:51:35.383Z,1013.03
2019-04-30T09:52:41.309Z,1013.00
2019-04-30T09:53:56.832Z,1013.03
2019-04-30T09:54:52.109Z,1013.02
2019-04-30T09:55:59.512Z,1013.03
2019-04-30T09:57:02.938Z,1013.00
2019-04-30T09:58:16.753Z,1013.04
2019-04-30T09:59:13.954Z,1013.03
2019-04-30T10:00:19.539Z,1013.04
2019-04-30T10:01:24.986Z,1013.04
2019-04-30T10:02:30.511Z,1013.01
2019-04-30T10:03:36.920Z,1013.01
2019-04-30T10:04:41.732Z,1013.03
2019-04-30T10:05:48.944Z,1012.97
2019-04-30T10:06:52.553Z,1012.99
2019-04-30T10:07:59.368Z,1012.97
2019-04-30T10:09:03.586Z,1012.97
2019-04-30T10:10:11.255Z,1012.93
2019-04-30T10:11:14.596Z,1012.95
2019-04-30T10:12:20.116Z,1012.90
2019-04-30T10:13:25.635Z,1012.89
2019-04-30T10:14:31.141Z,1012.89
2019-04-30T10:15:36.644Z,1012.89
2019-04-30T10:16:42.178Z,1012.87
2019-04-30T10:17:47.678Z,1012.84
2019-04-30T10:18:53.369Z,1012.77
2019-04-30T10:19:58.708Z,1012.73
2019-04-30T10:21:04.228Z,1012.75
2019-04-30T10:22:09.733Z,1012.75
2019-04-30T10:23:15.244Z,1012.74
2019-04-30T10:24:20.764Z,1012.72
2019-04-30T10:25:26.282Z,1012.73
2019-04-30T10:26:31.789Z,1012.76
2019-04-30T10:27:38.794Z,1012.70
2019-04-30T10:28:42.840Z,1012.75
2019-04-30T10:29:49.319Z,1012.71
2019-04-30T10:30:53.856Z,1012.68
2019-04-30T10:31:59.357Z,1012.67
2019-04-30T10:33:04.870Z,1012.66
2019-04-30T10:34:10.384Z,1012.67
2019-04-30T10:35:15.894Z,1012.64
2019-04-30T10:36:21.410Z,1012.61
2019-04-30T10:37:28.695Z,1012.63
2019-04-30T10:38:32.443Z,1012.65
2019-04-30T10:39:38.924Z,1012.60
2019-04-30T10:40:43.459Z,1012.60
2019-04-30T10:41:48.976Z,1012.61
2019-04-30T10:42:54.501Z,1012.61
2019-04-30T10:44:00.008Z,1012.57
2019-04-30T10:45:05.518Z,1012.56
2019-04-30T10:46:11.013Z,1012.55
2019-04-30T10:47:16.545Z,1012.52
2019-04-30T10:48:22.075Z,1012.57
2019-04-30T10:49:29.172Z,1012.55
2019-04-30T10:50:33.093Z,1012.54
2019-04-30T10:51:38.906Z,1012.48
2019-04-30T10:52:44.117Z,1012.44
2019-04-30T10:53:50.910Z,1012.35
2019-04-30T10:54:55.144Z,1012.44
2019-04-30T10:56:00.652Z,1012.43
2019-04-30T10:57:06.171Z,1012.36
2019-04-30T10:58:11.691Z,1012.36
2019-04-30T10:59:17.194Z,1012.36
2019-04-30T11:00:22.714Z,1012.35
2019-04-30T11:01:29.151Z,1012.29
2019-04-30T11:02:33.732Z,1012.30
2019-04-30T11:03:39.251Z,1012.26
2019-04-30T11:04:44.777Z,1012.24
2019-04-30T11:05:50.281Z,1012.25
2019-04-30T11:06:55.794Z,1012.32
2019-04-30T11:08:01.311Z,1012.33
2019-04-30T11:09:06.836Z,1012.32
2019-04-30T11:10:12.352Z,1012.34
2019-04-30T11:11:17.848Z,1012.32
2019-04-30T11:12:23.360Z,1012.38
2019-04-30T11:13:28.876Z,1012.43
2019-04-30T11:14:34.394Z,1012.40
2019-04-30T11:15:39.904Z,1012.36
2019-04-30T11:16:45.561Z,1012.36
2019-04-30T11:17:51.072Z,1012.30
2019-04-30T11:18:56.652Z,1012.34
2019-04-30T11:20:02.242Z,1012.31
2019-04-30T11:21:09.538Z,1012.24
2019-04-30T11:22:13.220Z,1012.27
2019-04-30T11:23:20.932Z,1012.22
2019-04-30T11:24:35.867Z,1012.17
2019-04-30T11:25:31.234Z,1012.25
2019-04-30T11:26:35.419Z,1012.20
2019-04-30T11:27:41.610Z,1012.16
2019-04-30T11:28:46.290Z,1012.14
2019-04-30T11:29:51.756Z,1012.16
2019-04-30T11:30:57.248Z,1012.13
2019-04-30T11:32:02.830Z,1012.13
2019-04-30T11:33:08.346Z,1012.10
2019-04-30T11:34:13.656Z,1012.09
2019-04-30T11:35:20.723Z,1012.13
2019-04-30T11:36:24.689Z,1012.06
2019-04-30T11:37:30.196Z,1012.06
2019-04-30T11:38:35.713Z,1012.07
2019-04-30T11:39:41.225Z,1012.03
2019-04-30T11:40:48.501Z,1012.02
2019-04-30T11:41:52.251Z,1012.01
2019-04-30T11:42:57.762Z,1011.97
2019-04-30T11:44:03.289Z,1011.97
2019-04-30T11:45:08.947Z,1012.01
2019-04-30T11:46:14.321Z,1011.94
2019-04-30T11:47:19.824Z,1011.96
2019-04-30T11:48:25.344Z,1011.97
2019-04-30T11:49:30.853Z,1012.01
2019-04-30T11:50:36.369Z,1012.01
2019-04-30T11:51:41.893Z,1012.04
2019-04-30T11:52:47.411Z,1011.96
2019-04-30T11:53:52.930Z,1011.99
2019-04-30T11:54:59.659Z,1011.98
2019-04-30T11:56:03.944Z,1011.91
2019-04-30T11:57:09.486Z,1011.90
2019-04-30T11:58:21.651Z,1011.88
2019-04-30T11:59:20.500Z,1011.78
2019-04-30T12:00:26.007Z,1011.75
2019-04-30T12:01:31.523Z,1011.78
2019-04-30T12:02:37.036Z,1011.71
2019-04-30T12:03:42.555Z,1011.77
2019-04-30T12:04:49.490Z,1011.75
2019-04-30T12:05:53.585Z,1011.80
2019-04-30T12:06:59.101Z,1011.78
2019-04-30T12:08:04.615Z,1011.74
2019-04-30T12:09:10.133Z,1011.80
2019-04-30T12:10:15.642Z,1011.76
2019-04-30T12:11:21.158Z,1011.71
2019-04-30T12:12:26.671Z,1011.70
2019-04-30T12:13:32.194Z,1011.67
2019-04-30T12:14:39.461Z,1011.67
2019-04-30T12:15:43.229Z,1011.65
2019-04-30T12:16:50.728Z,1011.67
2019-04-30T12:17:54.251Z,1011.69
2019-04-30T12:19:00.687Z,1011.64
2019-04-30T12:20:05.283Z,1011.68
2019-04-30T12:21:10.801Z,1011.70
2019-04-30T12:22:16.311Z,1011.69
2019-04-30T12:23:21.830Z,1011.71
2019-04-30T12:24:30.225Z,1011.65
2019-04-30T12:25:32.862Z,1011.59
2019-04-30T12:26:39.009Z,1011.63
2019-04-30T12:27:43.905Z,1011.61
2019-04-30T12:28:49.406Z,1011.63
2019-04-30T12:29:54.925Z,1011.63
2019-04-30T12:31:00.439Z,1011.57
2019-04-30T12:32:05.953Z,1011.57
2019-04-30T12:33:11.528Z,1011.57
2019-04-30T12:34:16.989Z,1011.58
2019-04-30T12:35:22.508Z,1011.61
2019-04-30T12:36:28.940Z,1011.67
2019-04-30T12:37:33.529Z,1011.60
2019-04-30T12:38:39.049Z,1011.59
2019-04-30T12:39:44.569Z,1011.60
2019-04-30T12:40:50.082Z,1011.58
2019-04-30T12:41:55.599Z,1011.56
2019-04-30T12:43:01.115Z,1011.56
2019-04-30T12:44:06.635Z,1011.54
2019-04-30T12:45:12.145Z,1011.54
2019-04-30T12:46:21.057Z,1011.54
2019-04-30T12:47:23.181Z,1011.50
2019-04-30T12:48:29.544Z,1011.50
2019-04-30T12:49:34.208Z,1011.48
2019-04-30T12:50:39.729Z,1011.45
2019-04-30T12:51:46.286Z,1011.42
2019-04-30T12:52:50.756Z,1011.40
2019-04-30T12:53:56.273Z,1011.40
2019-04-30T12:55:01.798Z,1011.36
2019-04-30T12:56:08.962Z,1011.40
2019-04-30T12:57:12.854Z,1011.40
2019-04-30T12:58:20.737Z,1011.36
2019-04-30T12:59:23.853Z,1011.36
2019-04-30T13:00:29.426Z,1011.37
2019-04-30T13:01:34.887Z,1011.37
2019-04-30T13:02:40.410Z,1011.40
2019-04-30T13:03:55.968Z,1011.39
2019-04-30T13:04:51.437Z,1011.41
2019-04-30T13:05:57.344Z,1011.37
2019-04-30T13:07:03.199Z,1011.40
2019-04-30T13:08:09.632Z,1011.33
2019-04-30T13:09:14.169Z,1011.32
2019-04-30T13:10:19.344Z,1011.33
2019-04-30T13:11:25.256Z,1011.33
2019-04-30T13:12:30.575Z,1011.34